createdAt,value
2019-03-17T00:01:38.157Z,3.13
2019-03-17T00:04:04.203Z,2.80
2019-03-17T00:06:30.283Z,2.53
2019-03-17T00:08:56.341Z,2.57
2019-03-17T00:11:22.400Z,2.77
2019-03-17T00:13:48.515Z,2.07
2019-03-17T00:16:14.563Z,2.77
2019-03-17T00:18:40.636Z,2.30
2019-03-17T00:21:07.020Z,2.73
2019-03-17T00:23:33.095Z,2.40
2019-03-17T00:25:59.508Z,2.60
2019-03-17T00:28:25.552Z,2.70
2019-03-17T00:30:51.999Z,2.30
2019-03-17T00:33:18.355Z,2.53
2019-03-17T00:35:44.787Z,2.50
2019-03-17T00:38:10.881Z,2.60
2019-03-17T00:40:36.932Z,2.13
2019-03-17T00:43:03.390Z,2.33
2019-03-17T00:45:30.160Z,2.50
2019-03-17T00:47:56.547Z,2.30
2019-03-17T00:50:23.003Z,2.10
2019-03-17T00:52:49.307Z,2.70
2019-03-17T00:55:15.395Z,2.27
2019-03-17T00:57:41.811Z,2.37
2019-03-17T01:00:11.668Z,2.10
2019-03-17T01:02:38.108Z,2.63
2019-03-17T01:05:05.561Z,1.87
2019-03-17T01:07:32.003Z,1.87
2019-03-17T01:09:58.052Z,2.20
2019-03-17T01:12:24.443Z,2.00
2019-03-17T01:14:50.782Z,2.73
2019-03-17T01:17:16.831Z,2.67
2019-03-17T01:19:43.555Z,2.10
2019-03-17T01:22:09.733Z,2.30
2019-03-17T01:24:35.811Z,2.33
2019-03-17T01:27:02.223Z,2.20
2019-03-17T01:29:28.302Z,1.87
2019-03-17T01:31:54.508Z,2.30
2019-03-17T01:34:20.804Z,2.20
2019-03-17T01:36:46.851Z,2.10
2019-03-17T01:39:12.937Z,1.93
2019-03-17T01:41:38.994Z,2.20
2019-03-17T01:44:05.866Z,2.90
2019-03-17T01:46:31.909Z,1.93
2019-03-17T01:48:58.024Z,1.80
2019-03-17T01:51:24.392Z,1.63
2019-03-17T01:53:50.474Z,2.17
2019-03-17T01:56:16.526Z,2.23
2019-03-17T01:58:42.607Z,1.97
2019-03-17T02:01:11.825Z,2.20
2019-03-17T02:03:37.711Z,1.80
2019-03-17T02:06:03.959Z,2.07
2019-03-17T02:08:30.339Z,2.10
2019-03-17T02:10:56.672Z,2.00
2019-03-17T02:13:22.780Z,1.67
2019-03-17T02:15:48.926Z,1.80
2019-03-17T02:18:15.007Z,1.80
2019-03-17T02:20:41.451Z,2.23
2019-03-17T02:23:07.496Z,1.80
2019-03-17T02:25:34.033Z,2.13
2019-03-17T02:28:00.637Z,1.87
2019-03-17T02:30:26.680Z,1.70
2019-03-17T02:32:52.761Z,2.33
2019-03-17T02:35:19.166Z,2.10
2019-03-17T02:37:45.586Z,2.10
2019-03-17T02:40:11.668Z,2.00
2019-03-17T02:42:37.769Z,2.03
2019-03-17T02:45:07.624Z,1.50
2019-03-17T02:47:34.064Z,1.80
2019-03-17T02:50:00.498Z,1.20
2019-03-17T02:52:27.068Z,1.77
2019-03-17T02:54:53.519Z,1.70
2019-03-17T02:57:19.568Z,1.40
2019-03-17T02:59:45.652Z,1.37
2019-03-17T03:02:11.727Z,1.80
2019-03-17T03:04:37.805Z,1.80
2019-03-17T03:07:03.887Z,1.33
2019-03-17T03:09:29.938Z,1.60
2019-03-17T03:11:56.102Z,1.80
2019-03-17T03:14:23.300Z,2.00
2019-03-17T03:16:49.409Z,1.83
2019-03-17T03:19:15.755Z,1.70
2019-03-17T03:21:42.081Z,1.60
2019-03-17T03:24:08.137Z,1.67
2019-03-17T03:26:35.252Z,2.10
2019-03-17T03:29:01.329Z,1.50
2019-03-17T03:31:27.380Z,1.60
2019-03-17T03:33:53.793Z,1.70
2019-03-17T03:36:20.126Z,1.70
2019-03-17T03:38:46.163Z,1.50
2019-03-17T03:41:12.582Z,2.20
2019-03-17T03:43:39.049Z,2.20
2019-03-17T03:46:05.285Z,2.10
2019-03-17T03:48:31.366Z,1.90
2019-03-17T03:50:57.453Z,1.80
2019-03-17T03:53:23.587Z,2.50
2019-03-17T03:55:49.804Z,2.10
2019-03-17T03:58:15.938Z,1.90
2019-03-17T04:00:42.238Z,2.50
2019-03-17T04:03:08.335Z,1.97
2019-03-17T04:05:34.407Z,2.03
2019-03-17T04:08:00.932Z,2.20
2019-03-17T04:10:27.651Z,1.60
2019-03-17T04:12:53.984Z,2.20
2019-03-17T04:15:20.068Z,1.90
2019-03-17T04:17:46.177Z,2.50
2019-03-17T04:20:13.193Z,2.00
2019-03-17T04:22:39.608Z,2.07
2019-03-17T04:25:07.207Z,2.20
2019-03-17T04:27:33.399Z,2.00
2019-03-17T04:29:59.472Z,1.60
2019-03-17T04:32:25.564Z,2.37
2019-03-17T04:34:51.694Z,1.80
2019-03-17T04:37:17.991Z,1.90
2019-03-17T04:39:44.330Z,1.80
2019-03-17T04:42:10.403Z,1.60
2019-03-17T04:44:36.503Z,1.90
2019-03-17T04:47:02.554Z,1.73
2019-03-17T04:49:28.599Z,1.80
2019-03-17T04:51:54.700Z,1.83
2019-03-17T04:54:20.768Z,1.57
2019-03-17T04:56:47.185Z,1.50
2019-03-17T04:59:13.263Z,1.50
2019-03-17T05:01:39.336Z,1.70
2019-03-17T05:04:05.891Z,1.67
2019-03-17T05:06:32.628Z,1.90
2019-03-17T05:08:58.684Z,2.17
2019-03-17T05:11:25.090Z,1.63
2019-03-17T05:13:51.240Z,1.57
2019-03-17T05:16:17.291Z,1.83
2019-03-17T05:18:43.656Z,1.77
2019-03-17T05:21:09.744Z,1.90
2019-03-17T05:23:35.799Z,1.60
2019-03-17T05:26:01.983Z,1.23
2019-03-17T05:28:28.503Z,1.70
2019-03-17T05:30:54.616Z,1.60
2019-03-17T05:33:20.685Z,1.37
2019-03-17T05:35:47.157Z,1.70
2019-03-17T05:38:13.475Z,1.73
2019-03-17T05:40:39.806Z,1.80
2019-03-17T05:43:05.886Z,1.40
2019-03-17T05:45:31.927Z,2.43
2019-03-17T05:47:58.010Z,1.60
2019-03-17T05:50:24.051Z,1.97
2019-03-17T05:52:50.488Z,2.00
2019-03-17T05:55:16.668Z,1.70
2019-03-17T05:57:42.840Z,1.90
2019-03-17T06:00:15.752Z,2.00
2019-03-17T06:02:41.850Z,2.20
2019-03-17T06:05:08.088Z,2.13
2019-03-17T06:07:34.455Z,1.70
2019-03-17T06:10:00.780Z,2.07
2019-03-17T06:12:26.910Z,2.13
2019-03-17T06:14:52.954Z,1.93
2019-03-17T06:17:19.364Z,2.10
2019-03-17T06:19:45.816Z,2.00
2019-03-17T06:22:12.129Z,1.83
2019-03-17T06:24:38.451Z,2.10
2019-03-17T06:27:04.531Z,1.90
2019-03-17T06:29:30.617Z,2.10
2019-03-17T06:31:56.670Z,1.90
2019-03-17T06:34:24.386Z,1.80
2019-03-17T06:36:51.024Z,2.20
2019-03-17T06:39:17.173Z,2.07
2019-03-17T06:41:43.263Z,1.83
2019-03-17T06:44:09.800Z,2.10
2019-03-17T06:46:35.961Z,1.80
2019-03-17T06:49:02.051Z,1.33
2019-03-17T06:51:28.424Z,1.50
2019-03-17T06:53:56.638Z,2.00
2019-03-17T06:56:22.525Z,1.83
2019-03-17T06:58:48.911Z,1.80
2019-03-17T07:01:14.989Z,2.07
2019-03-17T07:03:41.049Z,2.00
2019-03-17T07:06:07.475Z,1.70
2019-03-17T07:08:34.542Z,1.83
2019-03-17T07:11:00.956Z,2.20
2019-03-17T07:13:27.004Z,2.00
2019-03-17T07:15:53.774Z,1.87
2019-03-17T07:18:19.807Z,1.77
2019-03-17T07:20:46.219Z,2.10
2019-03-17T07:23:13.027Z,1.63
2019-03-17T07:25:39.103Z,1.90
2019-03-17T07:28:05.265Z,1.90
2019-03-17T07:30:31.736Z,1.40
2019-03-17T07:32:58.172Z,1.53
2019-03-17T07:35:24.215Z,1.70
2019-03-17T07:37:56.806Z,1.43
2019-03-17T07:40:18.589Z,1.90
2019-03-17T07:42:44.659Z,1.60
2019-03-17T07:45:11.027Z,1.40
2019-03-17T07:47:37.458Z,1.50
2019-03-17T07:50:06.055Z,1.63
2019-03-17T07:52:32.879Z,1.50
2019-03-17T07:54:58.930Z,1.47
2019-03-17T07:57:25.011Z,1.43
2019-03-17T07:59:51.763Z,1.30
2019-03-17T08:02:17.807Z,1.73
2019-03-17T08:04:46.095Z,1.63
2019-03-17T08:07:11.846Z,1.33
2019-03-17T08:09:37.924Z,1.63
2019-03-17T08:12:04.240Z,1.40
2019-03-17T08:14:30.288Z,3.27
2019-03-17T08:16:57.005Z,1.43
2019-03-17T08:19:23.193Z,1.80
2019-03-17T08:21:49.240Z,1.57
2019-03-17T08:24:15.683Z,1.80
2019-03-17T08:26:41.733Z,1.57
2019-03-17T08:29:07.815Z,1.30
2019-03-17T08:31:34.155Z,1.83
2019-03-17T08:34:00.574Z,1.80
2019-03-17T08:36:26.654Z,1.50
2019-03-17T08:38:53.043Z,1.43
2019-03-17T08:41:19.372Z,1.57
2019-03-17T08:43:54.130Z,1.13
2019-03-17T08:46:14.080Z,1.77
2019-03-17T08:48:40.176Z,1.30
2019-03-17T08:51:06.519Z,1.27
2019-03-17T08:53:32.620Z,1.30
2019-03-17T08:55:58.673Z,1.50
2019-03-17T08:58:24.771Z,1.23
2019-03-17T09:00:51.193Z,1.40
2019-03-17T09:03:17.244Z,1.40
2019-03-17T09:05:43.344Z,1.50
2019-03-17T09:08:09.411Z,1.23
2019-03-17T09:10:35.520Z,1.03
2019-03-17T09:13:04.152Z,1.20
2019-03-17T09:15:30.246Z,1.20
2019-03-17T09:17:56.583Z,1.40
2019-03-17T09:20:23.313Z,1.30
2019-03-17T09:22:49.811Z,1.40
2019-03-17T09:25:15.860Z,1.10
2019-03-17T09:27:42.331Z,1.57
2019-03-17T09:30:16.797Z,1.30
2019-03-17T09:32:42.912Z,1.20
2019-03-17T09:35:09.064Z,1.20
2019-03-17T09:37:35.109Z,1.27
2019-03-17T09:40:01.525Z,1.10
2019-03-17T09:42:27.571Z,1.17
2019-03-17T09:44:53.677Z,1.07
2019-03-17T09:47:20.169Z,1.57
2019-03-17T09:49:46.447Z,1.03
2019-03-17T09:52:12.555Z,1.23
2019-03-17T09:54:39.334Z,1.40
2019-03-17T09:57:05.439Z,1.20
2019-03-17T09:59:31.584Z,1.27
2019-03-17T10:01:57.646Z,0.93
2019-03-17T10:04:23.748Z,1.20
2019-03-17T10:06:50.444Z,1.27
2019-03-17T10:09:16.865Z,1.50
2019-03-17T10:11:42.976Z,1.37
2019-03-17T10:14:09.023Z,1.20
2019-03-17T10:16:35.119Z,1.27
2019-03-17T10:19:01.480Z,1.10
2019-03-17T10:21:27.646Z,1.40
2019-03-17T10:23:53.752Z,1.50
2019-03-17T10:26:20.057Z,1.43
2019-03-17T10:28:46.494Z,1.00
2019-03-17T10:31:12.536Z,1.23
2019-03-17T10:33:38.819Z,1.07
2019-03-17T10:36:05.277Z,1.30
2019-03-17T10:38:31.417Z,1.00
2019-03-17T10:40:57.460Z,1.00
2019-03-17T10:43:23.877Z,1.53
2019-03-17T10:45:50.347Z,0.97
2019-03-17T10:48:16.391Z,1.07
2019-03-17T10:50:49.424Z,1.20
2019-03-17T10:53:11.737Z,1.30
2019-03-17T10:55:38.156Z,1.30
2019-03-17T10:58:04.260Z,1.30
2019-03-17T11:00:30.316Z,1.47
2019-03-17T11:02:56.364Z,1.60
2019-03-17T11:05:22.479Z,0.97
2019-03-17T11:07:48.916Z,1.20
2019-03-17T11:10:15.441Z,2.50
2019-03-17T11:12:41.751Z,1.30
2019-03-17T11:15:19.830Z,1.63
2019-03-17T11:17:46.061Z,1.30
2019-03-17T11:20:13.796Z,1.00
2019-03-17T11:22:39.904Z,1.60
2019-03-17T11:25:20.244Z,1.30
2019-03-17T11:27:46.357Z,1.00
2019-03-17T11:30:14.904Z,1.30
2019-03-17T11:32:41.271Z,1.10
2019-03-17T11:35:07.484Z,1.20
2019-03-17T11:37:33.574Z,1.23
2019-03-17T11:39:59.740Z,0.90
2019-03-17T11:42:26.077Z,1.13
2019-03-17T11:44:52.552Z,1.20
2019-03-17T11:47:19.027Z,1.30
2019-03-17T11:49:46.280Z,1.87
2019-03-17T11:52:13.345Z,1.20
2019-03-17T11:54:39.390Z,1.10
2019-03-17T11:57:05.465Z,1.40
2019-03-17T11:59:31.571Z,1.17
2019-03-17T12:01:57.949Z,1.30
2019-03-17T12:04:23.991Z,1.30
2019-03-17T12:06:50.293Z,1.30
2019-03-17T12:09:28.451Z,1.33
2019-03-17T12:11:44.988Z,1.00
2019-03-17T12:14:11.100Z,1.40
2019-03-17T12:16:37.155Z,0.93
2019-03-17T12:19:03.484Z,1.70
2019-03-17T12:21:29.911Z,1.30
2019-03-17T12:23:56.260Z,1.37
2019-03-17T12:26:22.671Z,1.00
2019-03-17T12:28:49.155Z,1.13
2019-03-17T12:31:15.800Z,1.33
2019-03-17T12:33:42.301Z,1.50
2019-03-17T12:36:09.119Z,1.40
2019-03-17T12:38:35.164Z,1.00
2019-03-17T12:41:01.284Z,1.23
2019-03-17T12:43:27.624Z,1.53
2019-03-17T12:45:54.132Z,1.07
2019-03-17T12:48:20.182Z,1.00
2019-03-17T12:50:46.292Z,0.90
2019-03-17T12:53:12.399Z,1.10
2019-03-17T12:55:38.828Z,1.40
2019-03-17T12:58:04.918Z,1.23
2019-03-17T13:00:31.320Z,1.20
2019-03-17T13:02:57.364Z,1.63
2019-03-17T13:05:23.482Z,1.27
2019-03-17T13:07:49.891Z,1.07
2019-03-17T13:10:17.952Z,1.57
2019-03-17T13:12:44.075Z,0.97
2019-03-17T13:15:11.833Z,1.13
2019-03-17T13:17:37.979Z,0.87
2019-03-17T13:20:06.305Z,1.10
2019-03-17T13:22:32.485Z,1.30
2019-03-17T13:24:58.628Z,1.40
2019-03-17T13:27:25.610Z,1.20
2019-03-17T13:29:51.656Z,1.23
2019-03-17T13:32:17.713Z,1.47
2019-03-17T13:34:44.109Z,1.60
2019-03-17T13:37:10.165Z,0.97
2019-03-17T13:39:36.569Z,1.00
2019-03-17T13:42:02.891Z,0.93
2019-03-17T13:44:29.333Z,1.13
2019-03-17T13:46:55.662Z,1.10
2019-03-17T13:49:21.708Z,1.10
2019-03-17T13:51:48.187Z,1.13
2019-03-17T13:54:14.228Z,1.10
2019-03-17T13:56:40.335Z,1.07
2019-03-17T13:59:06.688Z,1.00
2019-03-17T14:01:33.207Z,0.97
2019-03-17T14:03:59.329Z,1.30
2019-03-17T14:06:25.468Z,1.00
2019-03-17T14:08:51.912Z,0.90
2019-03-17T14:11:18.340Z,1.10
2019-03-17T14:13:44.458Z,1.00
2019-03-17T14:16:10.575Z,0.80
2019-03-17T14:18:36.921Z,1.17
2019-03-17T14:21:03.357Z,1.50
2019-03-17T14:23:29.787Z,1.17
2019-03-17T14:25:56.075Z,1.40
2019-03-17T14:28:22.124Z,1.13
2019-03-17T14:30:48.236Z,1.30
2019-03-17T14:33:14.711Z,1.23
2019-03-17T14:35:41.436Z,1.00
2019-03-17T14:38:07.560Z,1.30
2019-03-17T14:40:33.974Z,1.10
2019-03-17T14:43:01.548Z,1.20
2019-03-17T14:45:28.013Z,1.00
2019-03-17T14:47:54.312Z,1.57
2019-03-17T14:50:22.999Z,1.30
2019-03-17T14:52:49.054Z,1.43
2019-03-17T14:55:15.867Z,1.10
2019-03-17T14:57:42.292Z,1.23
2019-03-17T15:00:13.948Z,1.30
2019-03-17T15:02:40.848Z,1.10
2019-03-17T15:05:08.664Z,1.37
2019-03-17T15:07:34.714Z,1.00
2019-03-17T15:10:01.127Z,1.20
2019-03-17T15:12:27.847Z,1.30
2019-03-17T15:14:54.181Z,1.43
2019-03-17T15:17:20.304Z,1.47
2019-03-17T15:19:46.637Z,1.30
2019-03-17T15:22:12.684Z,1.23
2019-03-17T15:24:38.855Z,1.40
2019-03-17T15:27:04.903Z,1.10
2019-03-17T15:29:31.011Z,1.50
2019-03-17T15:31:57.423Z,1.30
2019-03-17T15:34:23.541Z,1.30
2019-03-17T15:36:49.644Z,1.33
2019-03-17T15:39:15.687Z,1.13
2019-03-17T15:41:42.117Z,1.07
2019-03-17T15:44:08.173Z,1.10
2019-03-17T15:46:34.219Z,1.10
2019-03-17T15:49:00.716Z,1.37
2019-03-17T15:51:27.129Z,1.40
2019-03-17T15:53:53.244Z,1.40
2019-03-17T15:56:19.290Z,1.17
2019-03-17T15:58:45.335Z,1.57
2019-03-17T16:01:12.452Z,1.10
2019-03-17T16:03:38.498Z,1.37
2019-03-17T16:06:04.549Z,1.33
2019-03-17T16:08:30.656Z,1.13
2019-03-17T16:10:57.408Z,1.60
2019-03-17T16:13:23.470Z,1.10
2019-03-17T16:15:49.872Z,1.10
2019-03-17T16:18:16.191Z,1.33
2019-03-17T16:20:42.687Z,1.37
2019-03-17T16:23:08.777Z,1.20
2019-03-17T16:25:38.004Z,1.10
2019-03-17T16:28:04.052Z,1.30
2019-03-17T16:30:32.256Z,1.30
2019-03-17T16:32:58.577Z,1.20
2019-03-17T16:35:24.998Z,1.00
2019-03-17T16:37:51.444Z,1.40
2019-03-17T16:40:27.093Z,1.27
2019-03-17T16:42:54.009Z,1.23
2019-03-17T16:45:22.247Z,0.80
2019-03-17T16:47:48.400Z,1.20
2019-03-17T16:50:16.954Z,1.10
2019-03-17T16:52:43.552Z,1.40
2019-03-17T16:55:11.618Z,1.20
2019-03-17T16:57:40.412Z,1.10
2019-03-17T17:00:08.991Z,1.30
2019-03-17T17:02:35.058Z,1.60
2019-03-17T17:05:01.773Z,1.37
2019-03-17T17:07:28.193Z,1.30
2019-03-17T17:09:54.247Z,1.00
2019-03-17T17:12:20.360Z,1.00
2019-03-17T17:14:46.416Z,1.30
2019-03-17T17:17:12.809Z,1.00
2019-03-17T17:19:39.349Z,1.03
2019-03-17T17:22:05.765Z,1.00
2019-03-17T17:24:32.193Z,1.13
2019-03-17T17:26:59.404Z,0.80
2019-03-17T17:29:25.466Z,1.03
2019-03-17T17:31:51.535Z,1.00
2019-03-17T17:34:18.120Z,0.80
2019-03-17T17:36:44.174Z,0.80
2019-03-17T17:39:10.907Z,1.43
2019-03-17T17:41:37.015Z,0.90
2019-03-17T17:44:03.764Z,0.73
2019-03-17T17:46:30.185Z,0.97
2019-03-17T17:48:56.512Z,0.90
2019-03-17T17:51:22.559Z,1.00
2019-03-17T17:53:48.669Z,0.60
2019-03-17T17:56:14.720Z,0.73
2019-03-17T17:58:41.116Z,0.77
2019-03-17T18:01:07.170Z,0.90
2019-03-17T18:03:33.975Z,1.00
2019-03-17T18:06:00.057Z,0.50
2019-03-17T18:08:26.542Z,0.80
2019-03-17T18:10:52.972Z,0.70
2019-03-17T18:13:19.391Z,0.73
2019-03-17T18:15:45.446Z,0.83
2019-03-17T18:18:11.551Z,1.07
2019-03-17T18:20:37.606Z,0.70
2019-03-17T18:23:04.008Z,0.80
2019-03-17T18:25:30.129Z,0.80
2019-03-17T18:27:56.183Z,0.90
2019-03-17T18:30:24.000Z,0.77
2019-03-17T18:32:50.040Z,0.93
2019-03-17T18:35:16.459Z,0.60
2019-03-17T18:37:42.669Z,0.80
2019-03-17T18:40:14.582Z,0.77
2019-03-17T18:42:42.065Z,1.20
2019-03-17T18:45:17.658Z,0.90
2019-03-17T18:47:44.232Z,1.00
2019-03-17T18:50:20.240Z,0.70
2019-03-17T18:52:41.537Z,1.60
2019-03-17T18:55:09.744Z,0.90
2019-03-17T18:57:37.503Z,1.13
2019-03-17T19:00:15.946Z,1.10
2019-03-17T19:02:42.155Z,1.30
2019-03-17T19:05:11.956Z,1.40
2019-03-17T19:07:38.073Z,1.40
2019-03-17T19:10:08.100Z,20.47
2019-03-17T19:12:44.898Z,19.20
2019-03-17T19:15:05.944Z,9.77
2019-03-17T19:17:31.992Z,8.67
2019-03-17T19:19:58.844Z,9.53
2019-03-17T19:22:25.584Z,8.30
2019-03-17T19:24:51.917Z,8.80
2019-03-17T19:27:19.404Z,8.27
2019-03-17T19:29:45.820Z,8.07
2019-03-17T19:32:12.232Z,8.93
2019-03-17T19:34:38.713Z,7.60
2019-03-17T19:37:05.103Z,8.27
2019-03-17T19:39:31.212Z,6.67
2019-03-17T19:41:57.557Z,8.40
2019-03-17T19:44:23.606Z,7.40
2019-03-17T19:46:50.009Z,7.43
2019-03-17T19:49:16.341Z,6.17
2019-03-17T19:51:42.457Z,6.23
2019-03-17T19:54:08.510Z,7.40
2019-03-17T19:56:34.633Z,5.60
2019-03-17T19:59:00.680Z,4.77
2019-03-17T20:01:27.091Z,5.40
2019-03-17T20:03:53.206Z,4.77
2019-03-17T20:06:19.253Z,4.77
2019-03-17T20:08:45.951Z,5.73
2019-03-17T20:11:12.386Z,4.63
2019-03-17T20:13:38.431Z,5.37
2019-03-17T20:16:04.915Z,4.20
2019-03-17T20:18:30.959Z,4.93
2019-03-17T20:20:57.020Z,4.13
2019-03-17T20:23:23.420Z,4.20
2019-03-17T20:25:49.852Z,3.97
2019-03-17T20:28:15.952Z,4.33
2019-03-17T20:30:42.435Z,4.10
2019-03-17T20:33:08.488Z,5.03
2019-03-17T20:35:34.536Z,3.93
2019-03-17T20:38:01.024Z,3.30
2019-03-17T20:40:27.060Z,3.40
2019-03-17T20:42:53.444Z,2.97
2019-03-17T20:45:20.608Z,2.87
2019-03-17T20:47:47.744Z,3.73
2019-03-17T20:50:15.996Z,3.07
2019-03-17T20:52:42.469Z,3.40
2019-03-17T20:55:31.002Z,4.00
2019-03-17T20:57:57.327Z,3.33
2019-03-17T21:00:23.440Z,3.97
2019-03-17T21:02:49.516Z,3.00
2019-03-17T21:05:15.558Z,2.40
2019-03-17T21:07:42.671Z,3.07
2019-03-17T21:10:11.002Z,3.03
2019-03-17T21:12:37.465Z,2.53
2019-03-17T21:15:10.083Z,3.17
2019-03-17T21:17:36.560Z,2.57
2019-03-17T21:20:04.879Z,3.03
2019-03-17T21:22:31.285Z,2.70
2019-03-17T21:24:57.708Z,3.30
2019-03-17T21:27:24.186Z,2.53
2019-03-17T21:29:50.573Z,2.40
2019-03-17T21:32:16.983Z,3.03
2019-03-17T21:34:43.465Z,2.90
2019-03-17T21:37:09.524Z,3.40
2019-03-17T21:39:35.583Z,3.40
2019-03-17T21:42:02.044Z,2.67
2019-03-17T21:44:28.105Z,2.33
2019-03-17T21:46:54.188Z,3.00
2019-03-17T21:49:20.241Z,2.70
2019-03-17T21:51:46.620Z,2.10
2019-03-17T21:54:12.948Z,2.90
2019-03-17T21:56:39.001Z,2.23
2019-03-17T21:59:05.340Z,2.60
2019-03-17T22:01:31.736Z,2.00
2019-03-17T22:03:57.792Z,2.70
2019-03-17T22:06:24.235Z,2.00
2019-03-17T22:08:51.116Z,2.10
2019-03-17T22:11:18.180Z,2.47
2019-03-17T22:13:44.595Z,2.20
2019-03-17T22:16:10.672Z,2.90
2019-03-17T22:18:36.847Z,2.70
2019-03-17T22:21:03.194Z,2.87
2019-03-17T22:23:29.239Z,3.00
2019-03-17T22:25:55.325Z,2.10
2019-03-17T22:28:21.404Z,2.10
2019-03-17T22:30:47.479Z,2.50
2019-03-17T22:33:13.567Z,2.80
2019-03-17T22:35:40.047Z,2.10
2019-03-17T22:38:06.124Z,2.23
2019-03-17T22:40:32.177Z,2.60
2019-03-17T22:42:58.264Z,2.60
2019-03-17T22:45:24.673Z,2.93
2019-03-17T22:47:50.719Z,3.43
2019-03-17T22:50:18.227Z,1.87
2019-03-17T22:52:44.968Z,2.20
2019-03-17T22:55:13.251Z,2.43
2019-03-17T22:57:39.713Z,1.93
2019-03-17T23:00:09.895Z,2.27
2019-03-17T23:02:35.944Z,2.20
2019-03-17T23:05:04.938Z,1.70
2019-03-17T23:07:31.244Z,2.10
2019-03-17T23:09:57.287Z,2.47
2019-03-17T23:12:23.374Z,1.93
2019-03-17T23:14:49.441Z,1.80
2019-03-17T23:17:15.931Z,1.87
2019-03-17T23:19:42.020Z,2.23
2019-03-17T23:22:08.065Z,1.90
2019-03-17T23:24:34.425Z,2.60
2019-03-17T23:27:00.751Z,2.00
2019-03-17T23:29:27.086Z,1.97
2019-03-17T23:31:53.411Z,1.50
2019-03-17T23:34:19.463Z,1.63
2019-03-17T23:36:45.541Z,1.80
2019-03-17T23:39:11.699Z,1.67
2019-03-17T23:41:38.465Z,1.37
2019-03-17T23:44:04.866Z,1.83
2019-03-17T23:46:31.318Z,1.97
2019-03-17T23:48:57.360Z,1.70
2019-03-17T23:51:24.068Z,1.50
2019-03-17T23:53:50.147Z,1.70
2019-03-17T23:56:16.507Z,1.87
2019-03-17T23:58:42.952Z,1.20
